Station Historical Data
Daily Summary for July 27, 2017 Units:  Both    English   Metric
« Previous Day
Next Day »
Daily Weekly Monthly Yearly Custom
  High: Low: Average:
Temperature: 81.9 °F /  27.7 °C 67.1 °F /  19.5 °C 72.8 °F /  22.7 °C
Dew Point: 67.6 °F /  19.8 °C 60.5 °F /  15.8 °C 64.7 °F /  18.2 °C
Humidity: 91% 55% 77%
Wind Speed: 7.0mph /  11.3km/h - 1mph /  1.6km/h
Wind Gust: 8.0mph /  12.9km/h - -
Wind- - SW
Pressure: 30.00 in /  1015.8 hPa 29.84 in /  1010.4 hPa -
Precipitation: 0.00 in /  0 mm    
Historical Graphs
 
 
Tabular Data for July 27, 2017
Time Temperature Dew Point Pressure Wind Wind Speed Wind Gust Humidity Rainfall Rate (Hourly)
00:00 69.2 °F /  20.7 °C 60.6 °F /  15.9 °C 30.00in /  1015.8hPa SW 2.0mph /  3.2km/h 5.0mph /  8km/h 74% 0.00in /  0mm
00:05 69.1 °F /  20.6 °C 60.5 °F /  15.8 °C 29.99in /  1015.5hPa Calm   1.0mph /  1.6km/h 74% 0.00in /  0mm
00:10 69.0 °F /  20.6 °C 60.7 °F /  15.9 °C 29.98in /  1015.1hPa SSW 3.0mph /  4.8km/h 4.0mph /  6.4km/h 75% 0.00in /  0mm
00:15 69.1 °F /  20.6 °C 60.8 °F /  16 °C 29.98in /  1015.1hPa SW 1.0mph /  1.6km/h 5.0mph /  8km/h 75% 0.00in /  0mm
00:20 69.0 °F /  20.6 °C 60.7 °F /  15.9 °C 29.98in /  1015.1hPa SW 1.0mph /  1.6km/h 5.0mph /  8km/h 75% 0.00in /  0mm
00:25 69.0 °F /  20.6 °C 60.7 °F /  15.9 °C 29.98in /  1015.1hPa Calm   3.0mph /  4.8km/h 75% 0.00in /  0mm
00:30 69.0 °F /  20.6 °C 60.7 °F /  15.9 °C 29.98in /  1015.1hPa South 5.0mph /  8km/h 6.0mph /  9.7km/h 75% 0.00in /  0mm
00:35 69.1 °F /  20.6 °C 60.8 °F /  16 °C 29.98in /  1015.1hPa SSW 2.0mph /  3.2km/h 6.0mph /  9.7km/h 75% 0.00in /  0mm
00:40 69.0 °F /  20.6 °C 60.7 °F /  15.9 °C 29.98in /  1015.1hPa Calm   4.0mph /  6.4km/h 75% 0.00in /  0mm
00:45 69.1 °F /  20.6 °C 60.8 °F /  16 °C 29.98in /  1015.1hPa SSW 1.0mph /  1.6km/h 5.0mph /  8km/h 75% 0.00in /  0mm
00:50 69.2 °F /  20.7 °C 60.6 °F /  15.9 °C 29.98in /  1015.1hPa SSW 2.0mph /  3.2km/h 5.0mph /  8km/h 74% 0.00in /  0mm
00:55 69.3 °F /  20.7 °C 60.7 °F /  15.9 °C 29.97in /  1014.8hPa SSW 2.0mph /  3.2km/h 4.0mph /  6.4km/h 74% 0.00in /  0mm
01:00 69.2 °F /  20.7 °C 60.9 °F /  16.1 °C 29.98in /  1015.1hPa Calm   3.0mph /  4.8km/h 75% 0.00in /  0mm
01:05 69.3 °F /  20.7 °C 61.0 °F /  16.1 °C 29.98in /  1015.1hPa Calm     75% 0.00in /  0mm
01:10 69.2 °F /  20.7 °C 60.9 °F /  16.1 °C 29.98in /  1015.1hPa Calm     75% 0.00in /  0mm
01:15 69.0 °F /  20.6 °C 61.1 °F /  16.2 °C 29.98in /  1015.1hPa Calm     76% 0.00in /  0mm
01:20 68.9 °F /  20.5 °C 61.4 °F /  16.3 °C 29.98in /  1015.1hPa Calm     77% 0.00in /  0mm
01:25 68.9 °F /  20.5 °C 61.4 °F /  16.3 °C 29.98in /  1015.1hPa Calm     77% 0.00in /  0mm
01:30 68.7 °F /  20.4 °C 61.2 °F /  16.2 °C 29.98in /  1015.1hPa Calm     77% 0.00in /  0mm
01:35 68.7 °F /  20.4 °C 61.6 °F /  16.4 °C 29.98in /  1015.1hPa Calm     78% 0.00in /  0mm
01:40 68.7 °F /  20.4 °C 61.6 °F /  16.4 °C 29.98in /  1015.1hPa Calm     78% 0.00in /  0mm
01:45 68.5 °F /  20.3 °C 61.7 °F /  16.5 °C 29.98in /  1015.1hPa Calm     79% 0.00in /  0mm
01:50 68.5 °F /  20.3 °C 61.7 °F /  16.5 °C 29.98in /  1015.1hPa Calm     79% 0.00in /  0mm
01:55 68.5 °F /  20.3 °C 61.7 °F /  16.5 °C 29.98in /  1015.1hPa Calm     79% 0.00in /  0mm
02:00 68.5 °F /  20.3 °C 62.1 °F /  16.7 °C 29.97in /  1014.8hPa Calm     80% 0.00in /  0mm
02:05 68.5 °F /  20.3 °C 62.1 °F /  16.7 °C 29.98in /  1015.1hPa Calm   4.0mph /  6.4km/h 80% 0.00in /  0mm
02:10 68.6 °F /  20.3 °C 62.2 °F /  16.8 °C 29.98in /  1015.1hPa Calm   3.0mph /  4.8km/h 80% 0.00in /  0mm
02:15 68.5 °F /  20.3 °C 62.1 °F /  16.7 °C 29.97in /  1014.8hPa SSW 1.0mph /  1.6km/h 3.0mph /  4.8km/h 80% 0.00in /  0mm
02:20 68.5 °F /  20.3 °C 62.4 °F /  16.9 °C 29.97in /  1014.8hPa Calm   2.0mph /  3.2km/h 81% 0.00in /  0mm
02:25 68.5 °F /  20.3 °C 62.4 °F /  16.9 °C 29.97in /  1014.8hPa Calm   3.0mph /  4.8km/h 81% 0.00in /  0mm
02:30 68.3 °F /  20.2 °C 62.2 °F /  16.8 °C 29.97in /  1014.8hPa Calm     81% 0.00in /  0mm
02:35 68.2 °F /  20.1 °C 62.1 °F /  16.7 °C 29.97in /  1014.8hPa Calm     81% 0.00in /  0mm
02:40 68.1 °F /  20.1 °C 62.4 °F /  16.9 °C 29.96in /  1014.4hPa Calm     82% 0.00in /  0mm
02:45 67.9 °F /  19.9 °C 62.2 °F /  16.8 °C 29.96in /  1014.4hPa Calm     82% 0.00in /  0mm
02:50 67.9 °F /  19.9 °C 62.2 °F /  16.8 °C 29.96in /  1014.4hPa Calm     82% 0.00in /  0mm
02:55 67.9 °F /  19.9 °C 62.2 °F /  16.8 °C 29.95in /  1014.1hPa Calm   1.0mph /  1.6km/h 82% 0.00in /  0mm
03:00 67.8 °F /  19.9 °C 62.1 °F /  16.7 °C 29.95in /  1014.1hPa Calm   2.0mph /  3.2km/h 82% 0.00in /  0mm
03:05 67.8 °F /  19.9 °C 62.1 °F /  16.7 °C 29.95in /  1014.1hPa SSW 1.0mph /  1.6km/h 2.0mph /  3.2km/h 82% 0.00in /  0mm
03:10 67.7 °F /  19.8 °C 62.0 °F /  16.7 °C 29.95in /  1014.1hPa Calm     82% 0.00in /  0mm
03:15 67.7 °F /  19.8 °C 62.0 °F /  16.7 °C 29.95in /  1014.1hPa Calm     82% 0.00in /  0mm
03:20 67.7 °F /  19.8 °C 62.0 °F /  16.7 °C 29.95in /  1014.1hPa Calm     82% 0.00in /  0mm
03:25 67.6 °F /  19.8 °C 61.9 °F /  16.6 °C 29.95in /  1014.1hPa Calm     82% 0.00in /  0mm
03:30 67.5 °F /  19.7 °C 61.8 °F /  16.6 °C 29.95in /  1014.1hPa Calm     82% 0.00in /  0mm
03:35 67.5 °F /  19.7 °C 62.2 °F /  16.8 °C 29.95in /  1014.1hPa Calm     83% 0.00in /  0mm
03:40 67.4 °F /  19.7 °C 62.1 °F /  16.7 °C 29.95in /  1014.1hPa Calm     83% 0.00in /  0mm
03:45 67.4 °F /  19.7 °C 62.1 °F /  16.7 °C 29.94in /  1013.8hPa Calm     83% 0.00in /  0mm
03:50 67.5 °F /  19.7 °C 62.2 °F /  16.8 °C 29.94in /  1013.8hPa Calm     83% 0.00in /  0mm
03:55 67.5 °F /  19.7 °C 62.2 °F /  16.8 °C 29.94in /  1013.8hPa Calm     83% 0.00in /  0mm
04:00 67.5 °F /  19.7 °C 62.2 °F /  16.8 °C 29.94in /  1013.8hPa Calm     83% 0.00in /  0mm
04:05 67.4 °F /  19.7 °C 62.1 °F /  16.7 °C 29.95in /  1014.1hPa Calm     83% 0.00in /  0mm
04:10 67.4 °F /  19.7 °C 62.1 °F /  16.7 °C 29.94in /  1013.8hPa Calm     83% 0.00in /  0mm
04:15 67.4 °F /  19.7 °C 62.4 °F /  16.9 °C 29.94in /  1013.8hPa Calm     84% 0.00in /  0mm
04:20 67.4 °F /  19.7 °C 62.4 °F /  16.9 °C 29.95in /  1014.1hPa Calm     84% 0.00in /  0mm
04:25 67.4 °F /  19.7 °C 62.4 °F /  16.9 °C 29.95in /  1014.1hPa Calm     84% 0.00in /  0mm
04:30 67.4 °F /  19.7 °C 62.4 °F /  16.9 °C 29.95in /  1014.1hPa Calm     84% 0.00in /  0mm
04:35 67.4 °F /  19.7 °C 62.4 °F /  16.9 °C 29.95in /  1014.1hPa Calm     84% 0.00in /  0mm
04:40 67.4 °F /  19.7 °C 62.4 °F /  16.9 °C 29.95in /  1014.1hPa Calm     84% 0.00in /  0mm
04:45 67.4 °F /  19.7 °C 62.4 °F /  16.9 °C 29.95in /  1014.1hPa Calm     84% 0.00in /  0mm
04:50 67.4 °F /  19.7 °C 62.7 °F /  17.1 °C 29.95in /  1014.1hPa Calm     85% 0.00in /  0mm
04:55 67.3 °F /  19.6 °C 62.6 °F /  17 °C 29.95in /  1014.1hPa Calm     85% 0.00in /  0mm
05:00 67.2 °F /  19.6 °C 62.5 °F /  16.9 °C 29.96in /  1014.4hPa Calm     85% 0.00in /  0mm
05:05 67.2 °F /  19.6 °C 62.9 °F /  17.2 °C 29.96in /  1014.4hPa Calm     86% 0.00in /  0mm
05:10 67.2 °F /  19.6 °C 62.9 °F /  17.2 °C 29.96in /  1014.4hPa Calm     86% 0.00in /  0mm
05:15 67.3 °F /  19.6 °C 63.0 °F /  17.2 °C 29.95in /  1014.1hPa Calm     86% 0.00in /  0mm
05:20 67.5 °F /  19.7 °C 63.2 °F /  17.3 °C 29.95in /  1014.1hPa Calm   2.0mph /  3.2km/h 86% 0.00in /  0mm
05:25 67.7 °F /  19.8 °C 63.4 °F /  17.4 °C 29.96in /  1014.4hPa SSW 1.0mph /  1.6km/h 1.0mph /  1.6km/h 86% 0.00in /  0mm
05:30 67.8 °F /  19.9 °C 63.1 °F /  17.3 °C 29.96in /  1014.4hPa Calm   2.0mph /  3.2km/h 85% 0.00in /  0mm
05:35 67.9 °F /  19.9 °C 63.2 °F /  17.3 °C 29.96in /  1014.4hPa Calm     85% 0.00in /  0mm
05:40 67.9 °F /  19.9 °C 63.2 °F /  17.3 °C 29.96in /  1014.4hPa Calm     85% 0.01in /  0.25mm
05:45 67.8 °F /  19.9 °C 63.5 °F /  17.5 °C 29.96in /  1014.4hPa Calm     86% 0.01in /  0.25mm
05:50 67.6 °F /  19.8 °C 63.3 °F /  17.4 °C 29.96in /  1014.4hPa Calm     86% 0.02in /  0.51mm
05:55 67.4 °F /  19.7 °C 63.4 °F /  17.4 °C 29.96in /  1014.4hPa Calm     87% 0.02in /  0.51mm
06:00 67.3 °F /  19.6 °C 63.6 °F /  17.6 °C 29.96in /  1014.4hPa Calm     88% 0.03in /  0.76mm
06:05 67.2 °F /  19.6 °C 63.5 °F /  17.5 °C 29.96in /  1014.4hPa Calm     88% 0.03in /  0.76mm
06:10 67.1 °F /  19.5 °C 63.4 °F /  17.4 °C 29.96in /  1014.4hPa Calm     88% 0.04in /  1.02mm
06:15 67.2 °F /  19.6 °C 63.8 °F /  17.7 °C 29.96in /  1014.4hPa Calm     89% 0.04in /  1.02mm
06:20 67.2 °F /  19.6 °C 63.8 °F /  17.7 °C 29.96in /  1014.4hPa Calm     89% 0.04in /  1.02mm
06:25 67.1 °F /  19.5 °C 64.1 °F /  17.8 °C 29.96in /  1014.4hPa Calm     90% 0.04in /  1.02mm
06:30 67.1 °F /  19.5 °C 64.1 °F /  17.8 °C 29.96in /  1014.4hPa Calm     90% 0.04in /  1.02mm
06:35 67.1 °F /  19.5 °C 64.1 °F /  17.8 °C 29.95in /  1014.1hPa Calm     90% 0.05in /  1.27mm
06:40 67.1 °F /  19.5 °C 64.1 °F /  17.8 °C 29.95in /  1014.1hPa Calm     90% 0.05in /  1.27mm
06:45 67.2 °F /  19.6 °C 64.5 °F /  18.1 °C 29.95in /  1014.1hPa Calm     91% 0.05in /  1.27mm
06:50 67.4 °F /  19.7 °C 64.7 °F /  18.2 °C 29.95in /  1014.1hPa Calm     91% 0.04in /  1.02mm
06:55 67.2 °F /  19.6 °C 64.5 °F /  18.1 °C 29.95in /  1014.1hPa Calm     91% 0.04in /  1.02mm
07:00 67.3 °F /  19.6 °C 64.6 °F /  18.1 °C 29.95in /  1014.1hPa Calm     91% 0.03in /  0.76mm
07:05 67.4 °F /  19.7 °C 64.7 °F /  18.2 °C 29.95in /  1014.1hPa Calm     91% 0.03in /  0.76mm
07:10 67.6 °F /  19.8 °C 64.9 °F /  18.3 °C 29.95in /  1014.1hPa Calm     91% 0.02in /  0.51mm
07:15 67.7 °F /  19.8 °C 65.0 °F /  18.3 °C 29.94in /  1013.8hPa Calm     91% 0.02in /  0.51mm
07:20 67.8 °F /  19.9 °C 65.1 °F /  18.4 °C 29.95in /  1014.1hPa Calm     91% 0.02in /  0.51mm
07:25 67.9 °F /  19.9 °C 65.2 °F /  18.4 °C 29.95in /  1014.1hPa Calm     91% 0.02in /  0.51mm
07:30 68.1 °F /  20.1 °C 65.4 °F /  18.6 °C 29.95in /  1014.1hPa Calm     91% 0.02in /  0.51mm
07:35 68.2 °F /  20.1 °C 65.5 °F /  18.6 °C 29.95in /  1014.1hPa Calm     91% 0.01in /  0.25mm
07:40 68.4 °F /  20.2 °C 65.7 °F /  18.7 °C 29.95in /  1014.1hPa Calm     91% 0.00in /  0mm
07:45 68.5 °F /  20.3 °C 65.8 °F /  18.8 °C 29.95in /  1014.1hPa Calm     91% 0.00in /  0mm
07:50 68.5 °F /  20.3 °C 65.8 °F /  18.8 °C 29.95in /  1014.1hPa Calm     91% 0.00in /  0mm
07:55 68.3 °F /  20.2 °C 65.6 °F /  18.7 °C 29.95in /  1014.1hPa Calm     91% 0.00in /  0mm
08:00 68.2 °F /  20.1 °C 65.2 °F /  18.4 °C 29.95in /  1014.1hPa Calm     90% 0.00in /  0mm
08:05 68.3 °F /  20.2 °C 65.3 °F /  18.5 °C 29.95in /  1014.1hPa Calm     90% 0.00in /  0mm
08:10 68.4 °F /  20.2 °C 65.4 °F /  18.6 °C 29.94in /  1013.8hPa Calm     90% 0.00in /  0mm
08:15 68.4 °F /  20.2 °C 65.4 °F /  18.6 °C 29.94in /  1013.8hPa Calm     90% 0.00in /  0mm
08:20 68.5 °F /  20.3 °C 65.4 °F /  18.6 °C 29.94in /  1013.8hPa Calm     90% 0.00in /  0mm
08:25 68.6 °F /  20.3 °C 65.5 °F /  18.6 °C 29.95in /  1014.1hPa Calm     90% 0.00in /  0mm
08:30 68.5 °F /  20.3 °C 65.1 °F /  18.4 °C 29.95in /  1014.1hPa Calm     89% 0.00in /  0mm
08:35 68.5 °F /  20.3 °C 65.1 °F /  18.4 °C 29.95in /  1014.1hPa Calm     89% 0.00in /  0mm
08:40 68.7 °F /  20.4 °C 65.3 °F /  18.5 °C 29.95in /  1014.1hPa Calm     89% 0.00in /  0mm
08:45 68.8 °F /  20.4 °C 65.4 °F /  18.6 °C 29.95in /  1014.1hPa Calm     89% 0.00in /  0mm
08:55 69.3 °F /  20.7 °C 65.9 °F /  18.8 °C 29.95in /  1014.1hPa Calm     89% 0.00in /  0mm
09:00 69.4 °F /  20.8 °C 65.7 °F /  18.7 °C 29.95in /  1014.1hPa Calm     88% 0.00in /  0mm
09:05 69.4 °F /  20.8 °C 65.7 °F /  18.7 °C 29.95in /  1014.1hPa Calm     88% 0.00in /  0mm
09:10 69.5 °F /  20.8 °C 65.8 °F /  18.8 °C 29.95in /  1014.1hPa Calm     88% 0.00in /  0mm
09:15 69.6 °F /  20.9 °C 65.9 °F /  18.8 °C 29.94in /  1013.8hPa Calm     88% 0.00in /  0mm
09:20 70.3 °F /  21.3 °C 66.6 °F /  19.2 °C 29.94in /  1013.8hPa Calm     88% 0.00in /  0mm
09:25 70.4 °F /  21.3 °C 66.3 °F /  19.1 °C 29.95in /  1014.1hPa Calm     87% 0.00in /  0mm
09:29 70.6 °F /  21.4 °C 66.5 °F /  19.2 °C 29.94in /  1013.8hPa Calm     87% 0.00in /  0mm
09:35 70.7 °F /  21.5 °C 66.3 °F /  19.1 °C 29.94in /  1013.8hPa Calm     86% 0.00in /  0mm
09:40 71.0 °F /  21.7 °C 66.9 °F /  19.4 °C 29.94in /  1013.8hPa Calm     87% 0.00in /  0mm
09:45 71.0 °F /  21.7 °C 66.3 °F /  19.1 °C 29.94in /  1013.8hPa Calm     85% 0.00in /  0mm
09:50 71.3 °F /  21.8 °C 66.6 °F /  19.2 °C 29.94in /  1013.8hPa West 2.0mph /  3.2km/h 4.0mph /  6.4km/h 85% 0.00in /  0mm
09:55 71.4 °F /  21.9 °C 66.3 °F /  19.1 °C 29.94in /  1013.8hPa WNW 1.0mph /  1.6km/h 3.0mph /  4.8km/h 84% 0.00in /  0mm
10:00 71.5 °F /  21.9 °C 66.4 °F /  19.1 °C 29.94in /  1013.8hPa Calm   3.0mph /  4.8km/h 84% 0.00in /  0mm
10:05 71.8 °F /  22.1 °C 66.4 °F /  19.1 °C 29.94in /  1013.8hPa NW 1.0mph /  1.6km/h 5.0mph /  8km/h 83% 0.00in /  0mm
10:10 72.1 °F /  22.3 °C 66.6 °F /  19.2 °C 29.94in /  1013.8hPa WNW 1.0mph /  1.6km/h 5.0mph /  8km/h 83% 0.00in /  0mm
10:15 71.9 °F /  22.2 °C 66.1 °F /  18.9 °C 29.94in /  1013.8hPa WNW 1.0mph /  1.6km/h 5.0mph /  8km/h 82% 0.00in /  0mm
10:20 71.9 °F /  22.2 °C 66.5 °F /  19.2 °C 29.94in /  1013.8hPa WNW 1.0mph /  1.6km/h 3.0mph /  4.8km/h 83% 0.00in /  0mm
10:25 72.1 °F /  22.3 °C 66.3 °F /  19.1 °C 29.94in /  1013.8hPa Calm   2.0mph /  3.2km/h 82% 0.00in /  0mm
10:30 72.1 °F /  22.3 °C 65.9 °F /  18.8 °C 29.94in /  1013.8hPa Calm   4.0mph /  6.4km/h 81% 0.00in /  0mm
10:35 72.2 °F /  22.3 °C 66.4 °F /  19.1 °C 29.95in /  1014.1hPa WNW 1.0mph /  1.6km/h 4.0mph /  6.4km/h 82% 0.00in /  0mm
10:39 72.2 °F /  22.3 °C 66.0 °F /  18.9 °C 29.94in /  1013.8hPa Calm   2.0mph /  3.2km/h 81% 0.00in /  0mm
10:44 72.2 °F /  22.3 °C 65.0 °F /  18.3 °C 29.94in /  1013.8hPa NW 2.0mph /  3.2km/h 4.0mph /  6.4km/h 78% 0.00in /  0mm
10:49 72.6 °F /  22.6 °C 65.0 °F /  18.3 °C 29.95in /  1014.1hPa NW 3.0mph /  4.8km/h 6.0mph /  9.7km/h 77% 0.00in /  0mm
10:55 73.1 °F /  22.8 °C 64.7 °F /  18.2 °C 29.95in /  1014.1hPa WNW 3.0mph /  4.8km/h 6.0mph /  9.7km/h 75% 0.00in /  0mm
10:59 72.9 °F /  22.7 °C 64.9 °F /  18.3 °C 29.95in /  1014.1hPa NW 3.0mph /  4.8km/h 6.0mph /  9.7km/h 76% 0.00in /  0mm
11:05 73.1 °F /  22.8 °C 65.1 °F /  18.4 °C 29.94in /  1013.8hPa NNW 2.0mph /  3.2km/h 6.0mph /  9.7km/h 76% 0.00in /  0mm
11:10 73.1 °F /  22.8 °C 65.1 °F /  18.4 °C 29.94in /  1013.8hPa North 4.0mph /  6.4km/h 8.0mph /  12.9km/h 76% 0.00in /  0mm
11:15 73.7 °F /  23.2 °C 66.0 °F /  18.9 °C 29.94in /  1013.8hPa NNW 4.0mph /  6.4km/h 5.0mph /  8km/h 77% 0.00in /  0mm
11:20 73.7 °F /  23.2 °C 66.0 °F /  18.9 °C 29.94in /  1013.8hPa NNW 1.0mph /  1.6km/h 5.0mph /  8km/h 77% 0.00in /  0mm
11:25 73.2 °F /  22.9 °C 65.6 °F /  18.7 °C 29.94in /  1013.8hPa NW 2.0mph /  3.2km/h 6.0mph /  9.7km/h 77% 0.00in /  0mm
11:29 72.5 °F /  22.5 °C 64.9 °F /  18.3 °C 29.94in /  1013.8hPa NNW 3.0mph /  4.8km/h 6.0mph /  9.7km/h 77% 0.00in /  0mm
11:35 72.6 °F /  22.6 °C 65.7 °F /  18.7 °C 29.94in /  1013.8hPa North 2.0mph /  3.2km/h 6.0mph /  9.7km/h 79% 0.00in /  0mm
11:40 72.4 °F /  22.4 °C 65.2 °F /  18.4 °C 29.94in /  1013.8hPa NE 1.0mph /  1.6km/h 5.0mph /  8km/h 78% 0.00in /  0mm
11:45 72.4 °F /  22.4 °C 65.5 °F /  18.6 °C 29.94in /  1013.8hPa NE 3.0mph /  4.8km/h 8.0mph /  12.9km/h 79% 0.00in /  0mm
11:49 73.0 °F /  22.8 °C 66.1 °F /  18.9 °C 29.93in /  1013.4hPa Calm   3.0mph /  4.8km/h 79% 0.00in /  0mm
11:54 72.8 °F /  22.7 °C 65.5 °F /  18.6 °C 29.93in /  1013.4hPa NE 2.0mph /  3.2km/h 5.0mph /  8km/h 78% 0.00in /  0mm
11:59 72.6 °F /  22.6 °C 65.7 °F /  18.7 °C 29.93in /  1013.4hPa NNE 2.0mph /  3.2km/h 5.0mph /  8km/h 79% 0.00in /  0mm
12:05 72.5 °F /  22.5 °C 65.2 °F /  18.4 °C 29.93in /  1013.4hPa ENE 2.0mph /  3.2km/h 4.0mph /  6.4km/h 78% 0.00in /  0mm
12:10 73.0 °F /  22.8 °C 66.1 °F /  18.9 °C 29.93in /  1013.4hPa Calm   5.0mph /  8km/h 79% 0.00in /  0mm
12:15 72.6 °F /  22.6 °C 65.3 °F /  18.5 °C 29.93in /  1013.4hPa ENE 4.0mph /  6.4km/h 7.0mph /  11.3km/h 78% 0.00in /  0mm
12:20 73.0 °F /  22.8 °C 65.7 °F /  18.7 °C 29.92in /  1013.1hPa ENE 1.0mph /  1.6km/h 6.0mph /  9.7km/h 78% 0.00in /  0mm
12:25 73.8 °F /  23.2 °C 66.5 °F /  19.2 °C 29.92in /  1013.1hPa NE 3.0mph /  4.8km/h 6.0mph /  9.7km/h 78% 0.00in /  0mm
12:30 73.7 °F /  23.2 °C 66.4 °F /  19.1 °C 29.92in /  1013.1hPa ENE 2.0mph /  3.2km/h 6.0mph /  9.7km/h 78% 0.00in /  0mm
12:35 73.9 °F /  23.3 °C 65.9 °F /  18.8 °C 29.92in /  1013.1hPa ENE 1.0mph /  1.6km/h 5.0mph /  8km/h 76% 0.00in /  0mm
12:40 73.5 °F /  23.1 °C 65.8 °F /  18.8 °C 29.92in /  1013.1hPa ESE 1.0mph /  1.6km/h 4.0mph /  6.4km/h 77% 0.00in /  0mm
12:45 74.0 °F /  23.3 °C 66.0 °F /  18.9 °C 29.92in /  1013.1hPa East 1.0mph /  1.6km/h 6.0mph /  9.7km/h 76% 0.00in /  0mm
12:50 73.8 °F /  23.2 °C 65.4 °F /  18.6 °C 29.92in /  1013.1hPa East 1.0mph /  1.6km/h 3.0mph /  4.8km/h 75% 0.00in /  0mm
12:55 74.0 °F /  23.3 °C 66.0 °F /  18.9 °C 29.92in /  1013.1hPa East 1.0mph /  1.6km/h 3.0mph /  4.8km/h 76% 0.00in /  0mm
12:59 73.7 °F /  23.2 °C 65.7 °F /  18.7 °C 29.92in /  1013.1hPa South 2.0mph /  3.2km/h 4.0mph /  6.4km/h 76% 0.00in /  0mm
13:05 73.5 °F /  23.1 °C 66.2 °F /  19 °C 29.92in /  1013.1hPa Calm   4.0mph /  6.4km/h 78% 0.00in /  0mm
13:10 73.9 °F /  23.3 °C 65.5 °F /  18.6 °C 29.92in /  1013.1hPa South 2.0mph /  3.2km/h 3.0mph /  4.8km/h 75% 0.00in /  0mm
13:14 74.3 °F /  23.5 °C 65.9 °F /  18.8 °C 29.92in /  1013.1hPa SSW 2.0mph /  3.2km/h 4.0mph /  6.4km/h 75% 0.00in /  0mm
13:20 74.2 °F /  23.4 °C 65.8 °F /  18.8 °C 29.92in /  1013.1hPa SW 2.0mph /  3.2km/h 4.0mph /  6.4km/h 75% 0.00in /  0mm
13:25 74.5 °F /  23.6 °C 66.4 °F /  19.1 °C 29.92in /  1013.1hPa SW 1.0mph /  1.6km/h 4.0mph /  6.4km/h 76% 0.00in /  0mm
13:30 74.8 °F /  23.8 °C 66.0 °F /  18.9 °C 29.91in /  1012.8hPa SSW 1.0mph /  1.6km/h 3.0mph /  4.8km/h 74% 0.00in /  0mm
13:34 75.3 °F /  24.1 °C 66.0 °F /  18.9 °C 29.91in /  1012.8hPa SSE 1.0mph /  1.6km/h 4.0mph /  6.4km/h 73% 0.00in /  0mm
13:40 75.9 °F /  24.4 °C 66.6 °F /  19.2 °C 29.91in /  1012.8hPa South 3.0mph /  4.8km/h 3.0mph /  4.8km/h 73% 0.00in /  0mm
13:45 75.8 °F /  24.3 °C 66.1 °F /  18.9 °C 29.91in /  1012.8hPa SW 2.0mph /  3.2km/h 5.0mph /  8km/h 72% 0.00in /  0mm
13:50 75.6 °F /  24.2 °C 65.5 °F /  18.6 °C 29.91in /  1012.8hPa Calm   3.0mph /  4.8km/h 71% 0.00in /  0mm
13:54 75.7 °F /  24.3 °C 65.6 °F /  18.7 °C 29.91in /  1012.8hPa SSW 1.0mph /  1.6km/h 3.0mph /  4.8km/h 71% 0.00in /  0mm
14:00 76.1 °F /  24.5 °C 66.0 °F /  18.9 °C 29.90in /  1012.4hPa SSW 2.0mph /  3.2km/h 5.0mph /  8km/h 71% 0.00in /  0mm
14:04 75.7 °F /  24.3 °C 65.6 °F /  18.7 °C 29.90in /  1012.4hPa SSW 1.0mph /  1.6km/h 5.0mph /  8km/h 71% 0.00in /  0mm
14:09 75.5 °F /  24.2 °C 65.4 °F /  18.6 °C 29.90in /  1012.4hPa South 1.0mph /  1.6km/h 5.0mph /  8km/h 71% 0.00in /  0mm
14:14 75.6 °F /  24.2 °C 65.9 °F /  18.8 °C 29.90in /  1012.4hPa SSE 2.0mph /  3.2km/h 4.0mph /  6.4km/h 72% 0.00in /  0mm
14:20 75.9 °F /  24.4 °C 66.6 °F /  19.2 °C 29.89in /  1012.1hPa South 2.0mph /  3.2km/h 5.0mph /  8km/h 73% 0.00in /  0mm
14:24 76.3 °F /  24.6 °C 65.8 °F /  18.8 °C 29.90in /  1012.4hPa South 2.0mph /  3.2km/h 6.0mph /  9.7km/h 70% 0.00in /  0mm
14:29 76.4 °F /  24.7 °C 65.5 °F /  18.6 °C 29.90in /  1012.4hPa SSW 2.0mph /  3.2km/h 6.0mph /  9.7km/h 69% 0.00in /  0mm
14:35 77.6 °F /  25.3 °C 66.6 °F /  19.2 °C 29.90in /  1012.4hPa SW 2.0mph /  3.2km/h 6.0mph /  9.7km/h 69% 0.00in /  0mm
14:40 77.4 °F /  25.2 °C 66.4 °F /  19.1 °C 29.90in /  1012.4hPa SW 4.0mph /  6.4km/h 6.0mph /  9.7km/h 69% 0.00in /  0mm
14:45 77.1 °F /  25.1 °C 66.6 °F /  19.2 °C 29.89in /  1012.1hPa SSW 2.0mph /  3.2km/h 6.0mph /  9.7km/h 70% 0.00in /  0mm
14:50 77.5 °F /  25.3 °C 66.1 °F /  18.9 °C 29.89in /  1012.1hPa WSW 4.0mph /  6.4km/h 5.0mph /  8km/h 68% 0.00in /  0mm
14:54 77.6 °F /  25.3 °C 65.3 °F /  18.5 °C 29.89in /  1012.1hPa SSW 3.0mph /  4.8km/h 7.0mph /  11.3km/h 66% 0.00in /  0mm
15:00 77.5 °F /  25.3 °C 65.7 °F /  18.7 °C 29.89in /  1012.1hPa SW 4.0mph /  6.4km/h 7.0mph /  11.3km/h 67% 0.00in /  0mm
15:05 78.5 °F /  25.8 °C 66.6 °F /  19.2 °C 29.89in /  1012.1hPa SW 3.0mph /  4.8km/h 6.0mph /  9.7km/h 67% 0.00in /  0mm
15:10 78.6 °F /  25.9 °C 66.3 °F /  19.1 °C 29.89in /  1012.1hPa WSW 3.0mph /  4.8km/h 8.0mph /  12.9km/h 66% 0.00in /  0mm
15:14 78.9 °F /  26.1 °C 65.2 °F /  18.4 °C 29.89in /  1012.1hPa WSW 2.0mph /  3.2km/h 7.0mph /  11.3km/h 63% 0.00in /  0mm
15:19 79.0 °F /  26.1 °C 64.4 °F /  18 °C 29.89in /  1012.1hPa WSW 5.0mph /  8km/h 6.0mph /  9.7km/h 61% 0.00in /  0mm
15:25 80.3 °F /  26.8 °C 65.6 °F /  18.7 °C 29.89in /  1012.1hPa WSW 4.0mph /  6.4km/h 7.0mph /  11.3km/h 61% 0.00in /  0mm
15:29 80.2 °F /  26.8 °C 65.5 °F /  18.6 °C 29.89in /  1012.1hPa WNW 4.0mph /  6.4km/h 7.0mph /  11.3km/h 61% 0.00in /  0mm
15:34 81.0 °F /  27.2 °C 64.8 °F /  18.2 °C 29.89in /  1012.1hPa WNW 2.0mph /  3.2km/h 7.0mph /  11.3km/h 58% 0.00in /  0mm
15:39 81.1 °F /  27.3 °C 63.9 °F /  17.7 °C 29.89in /  1012.1hPa West 2.0mph /  3.2km/h 6.0mph /  9.7km/h 56% 0.00in /  0mm
15:45 81.0 °F /  27.2 °C 64.3 °F /  17.9 °C 29.88in /  1011.7hPa West 3.0mph /  4.8km/h 7.0mph /  11.3km/h 57% 0.00in /  0mm
15:55 80.7 °F /  27.1 °C 66.0 °F /  18.9 °C 29.88in /  1011.7hPa WSW 3.0mph /  4.8km/h 7.0mph /  11.3km/h 61% 0.00in /  0mm
15:59 80.9 °F /  27.2 °C 64.7 °F /  18.2 °C 29.88in /  1011.7hPa West 3.0mph /  4.8km/h 8.0mph /  12.9km/h 58% 0.00in /  0mm
16:05 81.2 °F /  27.3 °C 65.5 °F /  18.6 °C 29.88in /  1011.7hPa WNW 3.0mph /  4.8km/h 8.0mph /  12.9km/h 59% 0.00in /  0mm
16:10 81.9 °F /  27.7 °C 66.2 °F /  19 °C 29.88in /  1011.7hPa SW 4.0mph /  6.4km/h 5.0mph /  8km/h 59% 0.00in /  0mm
16:15 81.6 °F /  27.6 °C 66.8 °F /  19.3 °C 29.88in /  1011.7hPa WNW 2.0mph /  3.2km/h 8.0mph /  12.9km/h 61% 0.00in /  0mm
16:20 81.4 °F /  27.4 °C 65.7 °F /  18.7 °C 29.88in /  1011.7hPa West 7.0mph /  11.3km/h 7.0mph /  11.3km/h 59% 0.00in /  0mm
16:24 80.7 °F /  27.1 °C 64.5 °F /  18.1 °C 29.87in /  1011.4hPa West 3.0mph /  4.8km/h 7.0mph /  11.3km/h 58% 0.00in /  0mm
16:30 81.1 °F /  27.3 °C 63.9 °F /  17.7 °C 29.87in /  1011.4hPa West 3.0mph /  4.8km/h 7.0mph /  11.3km/h 56% 0.00in /  0mm
16:34 80.7 °F /  27.1 °C 63.5 °F /  17.5 °C 29.87in /  1011.4hPa West 2.0mph /  3.2km/h 6.0mph /  9.7km/h 56% 0.00in /  0mm
16:39 81.3 °F /  27.4 °C 65.6 °F /  18.7 °C 29.87in /  1011.4hPa West 6.0mph /  9.7km/h 7.0mph /  11.3km/h 59% 0.00in /  0mm
16:44 81.4 °F /  27.4 °C 64.7 °F /  18.2 °C 29.87in /  1011.4hPa WSW 2.0mph /  3.2km/h 6.0mph /  9.7km/h 57% 0.00in /  0mm
16:49 81.3 °F /  27.4 °C 64.6 °F /  18.1 °C 29.87in /  1011.4hPa West 3.0mph /  4.8km/h 6.0mph /  9.7km/h 57% 0.00in /  0mm
16:55 81.7 °F /  27.6 °C 65.0 °F /  18.3 °C 29.87in /  1011.4hPa West 2.0mph /  3.2km/h 7.0mph /  11.3km/h 57% 0.00in /  0mm
17:00 81.6 °F /  27.6 °C 64.9 °F /  18.3 °C 29.86in /  1011.1hPa WNW 4.0mph /  6.4km/h 7.0mph /  11.3km/h 57% 0.00in /  0mm
17:04 81.4 °F /  27.4 °C 64.7 °F /  18.2 °C 29.86in /  1011.1hPa SW 7.0mph /  11.3km/h 7.0mph /  11.3km/h 57% 0.00in /  0mm
17:10 81.7 °F /  27.6 °C 65.0 °F /  18.3 °C 29.86in /  1011.1hPa WSW 4.0mph /  6.4km/h 7.0mph /  11.3km/h 57% 0.00in /  0mm
17:15 81.4 °F /  27.4 °C 64.7 °F /  18.2 °C 29.86in /  1011.1hPa WSW 3.0mph /  4.8km/h 5.0mph /  8km/h 57% 0.00in /  0mm
17:20 81.6 °F /  27.6 °C 66.4 °F /  19.1 °C 29.86in /  1011.1hPa Calm   3.0mph /  4.8km/h 60% 0.00in /  0mm
17:24 81.4 °F /  27.4 °C 64.7 °F /  18.2 °C 29.86in /  1011.1hPa WSW 1.0mph /  1.6km/h 3.0mph /  4.8km/h 57% 0.00in /  0mm
17:29 81.6 °F /  27.6 °C 64.4 °F /  18 °C 29.86in /  1011.1hPa WSW 1.0mph /  1.6km/h 5.0mph /  8km/h 56% 0.00in /  0mm
17:34 81.0 °F /  27.2 °C 63.3 °F /  17.4 °C 29.86in /  1011.1hPa SW 2.0mph /  3.2km/h 5.0mph /  8km/h 55% 0.00in /  0mm
17:39 81.9 °F /  27.7 °C 66.2 °F /  19 °C 29.85in /  1010.7hPa NW 2.0mph /  3.2km/h 3.0mph /  4.8km/h 59% 0.00in /  0mm
17:44 81.2 °F /  27.3 °C 64.0 °F /  17.8 °C 29.86in /  1011.1hPa Calm   5.0mph /  8km/h 56% 0.00in /  0mm
17:50 81.1 °F /  27.3 °C 64.9 °F /  18.3 °C 29.85in /  1010.7hPa NE 3.0mph /  4.8km/h 3.0mph /  4.8km/h 58% 0.00in /  0mm
17:54 80.6 °F /  27 °C 65.4 °F /  18.6 °C 29.85in /  1010.7hPa SE 1.0mph /  1.6km/h 3.0mph /  4.8km/h 60% 0.00in /  0mm
17:59 80.2 °F /  26.8 °C 65.1 °F /  18.4 °C 29.85in /  1010.7hPa NE 1.0mph /  1.6km/h 3.0mph /  4.8km/h 60% 0.00in /  0mm
18:04 80.0 °F /  26.7 °C 65.3 °F /  18.5 °C 29.85in /  1010.7hPa Calm   2.0mph /  3.2km/h 61% 0.00in /  0mm
18:10 79.9 °F /  26.6 °C 64.8 °F /  18.2 °C 29.85in /  1010.7hPa WNW 2.0mph /  3.2km/h 3.0mph /  4.8km/h 60% 0.00in /  0mm
18:14 79.9 °F /  26.6 °C 65.2 °F /  18.4 °C 29.85in /  1010.7hPa WNW 1.0mph /  1.6km/h 4.0mph /  6.4km/h 61% 0.00in /  0mm
18:19 79.8 °F /  26.6 °C 63.7 °F /  17.6 °C 29.85in /  1010.7hPa NW 2.0mph /  3.2km/h 4.0mph /  6.4km/h 58% 0.00in /  0mm
18:24 79.8 °F /  26.6 °C 64.7 °F /  18.2 °C 29.85in /  1010.7hPa NW 2.0mph /  3.2km/h 4.0mph /  6.4km/h 60% 0.00in /  0mm
18:29 80.3 °F /  26.8 °C 65.1 °F /  18.4 °C 29.85in /  1010.7hPa WNW 2.0mph /  3.2km/h 4.0mph /  6.4km/h 60% 0.00in /  0mm
18:35 80.1 °F /  26.7 °C 65.0 °F /  18.3 °C 29.84in /  1010.4hPa West 2.0mph /  3.2km/h 4.0mph /  6.4km/h 60% 0.00in /  0mm
18:40 79.6 °F /  26.4 °C 65.4 °F /  18.6 °C 29.85in /  1010.7hPa WSW 2.0mph /  3.2km/h 4.0mph /  6.4km/h 62% 0.00in /  0mm
18:44 79.8 °F /  26.6 °C 65.2 °F /  18.4 °C 29.85in /  1010.7hPa Calm   3.0mph /  4.8km/h 61% 0.00in /  0mm
18:49 79.4 °F /  26.3 °C 65.2 °F /  18.4 °C 29.85in /  1010.7hPa West 2.0mph /  3.2km/h 3.0mph /  4.8km/h 62% 0.00in /  0mm
18:54 79.2 °F /  26.2 °C 65.1 °F /  18.4 °C 29.85in /  1010.7hPa WSW 1.0mph /  1.6km/h 3.0mph /  4.8km/h 62% 0.00in /  0mm
18:59 79.0 °F /  26.1 °C 64.9 °F /  18.3 °C 29.85in /  1010.7hPa WSW 1.0mph /  1.6km/h 4.0mph /  6.4km/h 62% 0.00in /  0mm
19:04 78.7 °F /  25.9 °C 64.6 °F /  18.1 °C 29.85in /  1010.7hPa SW 2.0mph /  3.2km/h 5.0mph /  8km/h 62% 0.00in /  0mm
19:09 78.7 °F /  25.9 °C 64.6 °F /  18.1 °C 29.86in /  1011.1hPa West 2.0mph /  3.2km/h 5.0mph /  8km/h 62% 0.00in /  0mm
19:14 78.5 °F /  25.8 °C 64.9 °F /  18.3 °C 29.86in /  1011.1hPa WSW 1.0mph /  1.6km/h 4.0mph /  6.4km/h 63% 0.00in /  0mm
19:19 78.2 °F /  25.7 °C 64.6 °F /  18.1 °C 29.86in /  1011.1hPa West 2.0mph /  3.2km/h 4.0mph /  6.4km/h 63% 0.00in /  0mm
19:25 78.0 °F /  25.6 °C 64.8 °F /  18.2 °C 29.86in /  1011.1hPa WSW 2.0mph /  3.2km/h 5.0mph /  8km/h 64% 0.00in /  0mm
19:30 77.8 °F /  25.4 °C 64.6 °F /  18.1 °C 29.86in /  1011.1hPa WSW 2.0mph /  3.2km/h 5.0mph /  8km/h 64% 0.00in /  0mm
19:34 77.5 °F /  25.3 °C 64.4 °F /  18 °C 29.86in /  1011.1hPa WSW 2.0mph /  3.2km/h 5.0mph /  8km/h 64% 0.00in /  0mm
19:40 77.3 °F /  25.2 °C 64.6 °F /  18.1 °C 29.86in /  1011.1hPa WSW 2.0mph /  3.2km/h 5.0mph /  8km/h 65% 0.00in /  0mm
19:45 77.2 °F /  25.1 °C 64.5 °F /  18.1 °C 29.86in /  1011.1hPa WSW 2.0mph /  3.2km/h 5.0mph /  8km/h 65% 0.00in /  0mm
19:49 77.1 °F /  25.1 °C 64.4 °F /  18 °C 29.86in /  1011.1hPa WSW 2.0mph /  3.2km/h 5.0mph /  8km/h 65% 0.00in /  0mm
19:54 77.0 °F /  25 °C 64.3 °F /  17.9 °C 29.86in /  1011.1hPa SW 3.0mph /  4.8km/h 3.0mph /  4.8km/h 65% 0.00in /  0mm
20:04 76.9 °F /  24.9 °C 64.7 °F /  18.2 °C 29.86in /  1011.1hPa WSW 1.0mph /  1.6km/h 3.0mph /  4.8km/h 66% 0.00in /  0mm
20:09 76.8 °F /  24.9 °C 64.6 °F /  18.1 °C 29.86in /  1011.1hPa West 2.0mph /  3.2km/h 2.0mph /  3.2km/h 66% 0.00in /  0mm
20:14 76.6 °F /  24.8 °C 64.4 °F /  18 °C 29.86in /  1011.1hPa West 2.0mph /  3.2km/h 3.0mph /  4.8km/h 66% 0.00in /  0mm
20:19 76.5 °F /  24.7 °C 64.7 °F /  18.2 °C 29.86in /  1011.1hPa West 1.0mph /  1.6km/h 3.0mph /  4.8km/h 67% 0.00in /  0mm
20:24 76.3 °F /  24.6 °C 64.5 °F /  18.1 °C 29.87in /  1011.4hPa Calm   3.0mph /  4.8km/h 67% 0.00in /  0mm
20:29 76.1 °F /  24.5 °C 64.3 °F /  17.9 °C 29.86in /  1011.1hPa Calm     67% 0.00in /  0mm
20:34 76.0 °F /  24.4 °C 64.7 °F /  18.2 °C 29.86in /  1011.1hPa Calm     68% 0.00in /  0mm
20:39 75.9 °F /  24.4 °C 64.6 °F /  18.1 °C 29.87in /  1011.4hPa West 4.0mph /  6.4km/h 6.0mph /  9.7km/h 68% 0.00in /  0mm
20:44 75.8 °F /  24.3 °C 64.9 °F /  18.3 °C 29.87in /  1011.4hPa West 2.0mph /  3.2km/h 6.0mph /  9.7km/h 69% 0.00in /  0mm
20:49 75.7 °F /  24.3 °C 65.2 °F /  18.4 °C 29.87in /  1011.4hPa WNW 3.0mph /  4.8km/h 5.0mph /  8km/h 70% 0.00in /  0mm
20:55 75.3 °F /  24.1 °C 65.6 °F /  18.7 °C 29.87in /  1011.4hPa NW 2.0mph /  3.2km/h 5.0mph /  8km/h 72% 0.00in /  0mm
20:59 74.7 °F /  23.7 °C 66.2 °F /  19 °C 29.87in /  1011.4hPa NW 2.0mph /  3.2km/h 5.0mph /  8km/h 75% 0.00in /  0mm
21:04 74.3 °F /  23.5 °C 66.2 °F /  19 °C 29.88in /  1011.7hPa NNW 1.0mph /  1.6km/h 6.0mph /  9.7km/h 76% 0.00in /  0mm
21:09 73.9 °F /  23.3 °C 66.6 °F /  19.2 °C 29.87in /  1011.4hPa NNW 3.0mph /  4.8km/h 5.0mph /  8km/h 78% 0.00in /  0mm
21:14 73.4 °F /  23 °C 66.5 °F /  19.2 °C 29.87in /  1011.4hPa NNW 2.0mph /  3.2km/h 3.0mph /  4.8km/h 79% 0.00in /  0mm
21:19 73.3 °F /  22.9 °C 67.1 °F /  19.5 °C 29.87in /  1011.4hPa Calm   4.0mph /  6.4km/h 81% 0.00in /  0mm
21:24 73.1 °F /  22.8 °C 67.3 °F /  19.6 °C 29.87in /  1011.4hPa Calm   1.0mph /  1.6km/h 82% 0.00in /  0mm
21:29 73.0 °F /  22.8 °C 67.2 °F /  19.6 °C 29.87in /  1011.4hPa Calm     82% 0.00in /  0mm
21:34 73.0 °F /  22.8 °C 67.2 °F /  19.6 °C 29.87in /  1011.4hPa Calm     82% 0.00in /  0mm
21:39 73.0 °F /  22.8 °C 67.5 °F /  19.7 °C 29.88in /  1011.7hPa WNW 2.0mph /  3.2km/h 4.0mph /  6.4km/h 83% 0.00in /  0mm
21:44 73.0 °F /  22.8 °C 67.5 °F /  19.7 °C 29.88in /  1011.7hPa WNW 1.0mph /  1.6km/h 4.0mph /  6.4km/h 83% 0.00in /  0mm
21:49 72.9 °F /  22.7 °C 67.4 °F /  19.7 °C 29.87in /  1011.4hPa WNW 1.0mph /  1.6km/h 4.0mph /  6.4km/h 83% 0.00in /  0mm
21:55 72.8 °F /  22.7 °C 67.3 °F /  19.6 °C 29.88in /  1011.7hPa Calm   2.0mph /  3.2km/h 83% 0.00in /  0mm
22:00 72.8 °F /  22.7 °C 67.3 °F /  19.6 °C 29.88in /  1011.7hPa Calm   2.0mph /  3.2km/h 83% 0.00in /  0mm
22:04 72.7 °F /  22.6 °C 67.6 °F /  19.8 °C 29.87in /  1011.4hPa Calm     84% 0.00in /  0mm
22:09 72.5 °F /  22.5 °C 67.4 °F /  19.7 °C 29.87in /  1011.4hPa Calm     84% 0.00in /  0mm
22:14 72.4 °F /  22.4 °C 67.3 °F /  19.6 °C 29.87in /  1011.4hPa Calm     84% 0.00in /  0mm
22:19 72.4 °F /  22.4 °C 67.3 °F /  19.6 °C 29.87in /  1011.4hPa Calm     84% 0.00in /  0mm
22:24 72.4 °F /  22.4 °C 67.6 °F /  19.8 °C 29.87in /  1011.4hPa Calm     85% 0.00in /  0mm
22:29 72.4 °F /  22.4 °C 67.6 °F /  19.8 °C 29.87in /  1011.4hPa Calm   2.0mph /  3.2km/h 85% 0.00in /  0mm
22:30 72.4 °F /  22.4 °C 67.6 °F /  19.8 °C 29.87in /  1011.4hPa Calm   2.0mph /  3.2km/h 85% 0.00in /  0mm
22:35 72.4 °F /  22.4 °C 67.6 °F /  19.8 °C 29.87in /  1011.4hPa Calm   2.0mph /  3.2km/h 85% 0.00in /  0mm
22:40 72.3 °F /  22.4 °C 67.5 °F /  19.7 °C 29.87in /  1011.4hPa Calm     85% 0.00in /  0mm
22:44 72.2 °F /  22.3 °C 67.4 °F /  19.7 °C 29.87in /  1011.4hPa Calm     85% 0.00in /  0mm
22:49 72.1 °F /  22.3 °C 67.3 °F /  19.6 °C 29.87in /  1011.4hPa Calm     85% 0.00in /  0mm
22:54 72.2 °F /  22.3 °C 67.4 °F /  19.7 °C 29.87in /  1011.4hPa Calm     85% 0.00in /  0mm
22:55 72.2 °F /  22.3 °C 67.4 °F /  19.7 °C 29.87in /  1011.4hPa Calm     85% 0.00in /  0mm
23:05 72.3 °F /  22.4 °C 67.5 °F /  19.7 °C 29.87in /  1011.4hPa Calm     85% 0.00in /  0mm
23:09 72.4 °F /  22.4 °C 67.3 °F /  19.6 °C 29.87in /  1011.4hPa Calm     84% 0.00in /  0mm
23:14 72.4 °F /  22.4 °C 67.3 °F /  19.6 °C 29.88in /  1011.7hPa Calm     84% 0.00in /  0mm
23:19 72.4 °F /  22.4 °C 66.9 °F /  19.4 °C 29.87in /  1011.4hPa Calm     83% 0.00in /  0mm
23:24 72.5 °F /  22.5 °C 67.0 °F /  19.4 °C 29.87in /  1011.4hPa Calm     83% 0.00in /  0mm
23:29 72.4 °F /  22.4 °C 66.6 °F /  19.2 °C 29.87in /  1011.4hPa Calm     82% 0.00in /  0mm
23:34 72.5 °F /  22.5 °C 66.3 °F /  19.1 °C 29.87in /  1011.4hPa Calm   3.0mph /  4.8km/h 81% 0.00in /  0mm
23:39 72.4 °F /  22.4 °C 66.2 °F /  19 °C 29.87in /  1011.4hPa NE 1.0mph /  1.6km/h 3.0mph /  4.8km/h 81% 0.00in /  0mm
23:44 72.2 °F /  22.3 °C 66.0 °F /  18.9 °C 29.87in /  1011.4hPa Calm   1.0mph /  1.6km/h 81% 0.00in /  0mm
23:49 72.0 °F /  22.2 °C 66.2 °F /  19 °C 29.87in /  1011.4hPa Calm     82% 0.00in /  0mm
23:54 71.9 °F /  22.2 °C 66.1 °F /  18.9 °C 29.88in /  1011.7hPa Calm     82% 0.00in /  0mm
23:59 71.9 °F /  22.2 °C 66.1 °F /  18.9 °C 29.88in /  1011.7hPa Calm   2.0mph /  3.2km/h 82% 0.00in /  0mm
Buffalo, New York, USA
Compliments of Weather Underground - 2.5 mb